createdAt,value
2018-08-10T00:00:48.902Z,0.00
2018-08-10T00:02:45.658Z,0.00
2018-08-10T00:03:45.839Z,0.00
2018-08-10T00:09:57.281Z,0.00
2018-08-10T00:12:11.393Z,0.00
2018-08-10T00:13:11.439Z,0.00
2018-08-10T00:15:07.825Z,0.00
2018-08-10T00:17:23.461Z,0.00
2018-08-10T00:18:23.472Z,0.00
2018-08-10T00:20:19.453Z,0.00
2018-08-10T00:21:19.424Z,0.00
2018-08-10T00:23:15.360Z,0.00
2018-08-10T00:24:15.366Z,0.00
2018-08-10T00:26:11.344Z,0.00
2018-08-10T00:27:11.331Z,0.00
2018-08-10T00:29:08.296Z,0.00
2018-08-10T00:30:07.264Z,0.00
2018-08-10T00:32:03.234Z,0.00
2018-08-10T00:33:03.214Z,0.00
2018-08-10T00:34:59.193Z,0.00
2018-08-10T00:36:00.171Z,0.00
2018-08-10T00:37:55.657Z,0.00
2018-08-10T00:38:55.134Z,0.00
2018-08-10T00:40:53.063Z,0.00
2018-08-10T00:41:53.596Z,0.00
2018-08-10T00:43:50.035Z,0.00
2018-08-10T00:44:49.040Z,0.00
2018-08-10T00:46:45.008Z,0.00
2018-08-10T00:47:45.492Z,0.00
2018-08-10T00:49:40.905Z,0.00
2018-08-10T00:50:40.913Z,0.00
2018-08-10T00:52:36.879Z,0.00
2018-08-10T00:53:36.856Z,0.00
2018-08-10T00:55:33.318Z,0.00
2018-08-10T00:56:33.327Z,0.00
2018-08-10T00:58:29.255Z,0.00
2018-08-10T00:59:28.745Z,0.00
2018-08-10T01:01:24.679Z,0.00
2018-08-10T01:02:24.680Z,0.00
2018-08-10T01:04:22.628Z,0.00
2018-08-10T01:05:22.635Z,0.00
2018-08-10T01:07:18.585Z,0.00
2018-08-10T01:08:18.588Z,0.00
2018-08-10T01:10:15.025Z,0.00
2018-08-10T01:11:14.522Z,0.00
2018-08-10T01:13:12.494Z,0.00
2018-08-10T01:14:10.985Z,0.00
2018-08-10T01:16:06.446Z,0.00
2018-08-10T01:17:06.955Z,0.00
2018-08-10T01:19:02.465Z,0.00
2018-08-10T01:20:02.887Z,0.00
2018-08-10T01:21:58.321Z,0.00
2018-08-10T01:22:58.335Z,0.00
2018-08-10T01:24:54.279Z,0.00
2018-08-10T01:25:54.774Z,0.00
2018-08-10T01:27:50.271Z,0.00
2018-08-10T01:28:50.273Z,0.00
2018-08-10T01:30:46.183Z,0.00
2018-08-10T01:31:46.180Z,0.00
2018-08-10T01:33:42.651Z,0.00
2018-08-10T01:34:42.123Z,0.00
2018-08-10T01:36:38.098Z,0.00
2018-08-10T01:37:38.085Z,0.00
2018-08-10T01:39:34.533Z,0.00
2018-08-10T01:40:34.028Z,0.00
2018-08-10T01:42:29.957Z,0.00
2018-08-10T01:43:29.969Z,0.00
2018-08-10T01:45:25.897Z,0.00
2018-08-10T01:46:25.913Z,0.00
2018-08-10T01:48:22.357Z,0.00
2018-08-10T01:49:21.844Z,0.00
2018-08-10T01:51:17.818Z,0.00
2018-08-10T01:52:17.775Z,0.00
2018-08-10T01:54:14.243Z,0.00
2018-08-10T01:55:13.757Z,0.00
2018-08-10T01:57:09.677Z,0.00
2018-08-10T01:58:09.679Z,0.00
2018-08-10T02:00:05.618Z,0.00
2018-08-10T02:01:05.616Z,0.00
2018-08-10T02:03:01.587Z,0.00
2018-08-10T02:04:01.558Z,0.00
2018-08-10T02:05:57.489Z,0.00
2018-08-10T02:06:58.014Z,0.00
2018-08-10T02:08:54.453Z,0.00
2018-08-10T02:11:09.388Z,0.00
2018-08-10T02:12:09.913Z,0.00
2018-08-10T02:14:05.349Z,0.00
2018-08-10T02:15:05.347Z,0.00
2018-08-10T02:17:01.317Z,0.00
2018-08-10T02:18:01.295Z,0.00
2018-08-10T02:19:58.257Z,0.00
2018-08-10T02:20:58.759Z,0.00
2018-08-10T02:22:53.697Z,0.00
2018-08-10T02:23:53.199Z,0.00
2018-08-10T02:25:49.156Z,0.00
2018-08-10T02:26:49.103Z,0.00
2018-08-10T02:28:45.056Z,0.00
2018-08-10T02:29:45.059Z,0.00
2018-08-10T02:31:41.520Z,0.00
2018-08-10T02:32:41.018Z,0.00
2018-08-10T02:34:37.493Z,0.00
2018-08-10T02:35:36.951Z,0.00
2018-08-10T02:37:33.419Z,0.00
2018-08-10T02:38:32.903Z,0.00
2018-08-10T02:40:28.877Z,0.00
2018-08-10T02:41:30.388Z,0.00
2018-08-10T02:43:24.801Z,0.00
2018-08-10T02:44:25.297Z,0.00
2018-08-10T02:46:20.720Z,0.00
2018-08-10T02:47:20.718Z,0.00
2018-08-10T02:49:16.697Z,0.00
2018-08-10T02:50:16.676Z,0.00
2018-08-10T02:52:13.124Z,0.00
2018-08-10T02:53:12.625Z,0.00
2018-08-10T02:55:09.077Z,0.00
2018-08-10T02:56:10.071Z,0.00
2018-08-10T02:58:04.508Z,0.00
2018-08-10T02:59:04.492Z,0.00
2018-08-10T03:01:01.444Z,0.00
2018-08-10T03:02:00.417Z,0.00
2018-08-10T03:03:56.392Z,0.00
2018-08-10T03:04:56.903Z,0.00
2018-08-10T03:06:53.323Z,0.00
2018-08-10T03:07:52.337Z,0.00
2018-08-10T03:09:48.293Z,0.00
2018-08-10T03:10:48.795Z,0.00
2018-08-10T03:12:44.251Z,0.00
2018-08-10T03:13:44.233Z,0.00
2018-08-10T03:15:40.206Z,0.00
2018-08-10T03:17:56.648Z,0.00
2018-08-10T03:18:56.121Z,0.00
2018-08-10T03:20:53.099Z,0.00
2018-08-10T03:21:52.070Z,0.00
2018-08-10T03:23:48.524Z,0.00
2018-08-10T03:24:48.006Z,0.00
2018-08-10T03:26:43.965Z,0.00
2018-08-10T03:27:43.946Z,0.00
2018-08-10T03:29:39.869Z,0.00
2018-08-10T03:30:40.397Z,0.00
2018-08-10T03:32:35.850Z,0.00
2018-08-10T03:33:35.839Z,0.00
2018-08-10T03:35:31.791Z,0.00
2018-08-10T03:36:32.738Z,0.00
2018-08-10T03:38:27.740Z,0.00
2018-08-10T03:39:27.684Z,0.00
2018-08-10T03:41:23.658Z,4.00
2018-08-10T03:42:23.638Z,0.00
2018-08-10T03:44:19.607Z,4.00
2018-08-10T03:45:21.108Z,4.00
2018-08-10T03:47:15.523Z,4.00
2018-08-10T03:48:16.053Z,4.00
2018-08-10T03:50:11.973Z,8.00
2018-08-10T03:51:11.464Z,8.00
2018-08-10T03:53:08.424Z,12.00
2018-08-10T03:54:07.917Z,12.00
2018-08-10T03:56:04.383Z,16.00
2018-08-10T03:57:03.369Z,20.00
2018-08-10T03:58:59.326Z,24.00
2018-08-10T03:59:59.306Z,24.00
2018-08-10T04:01:55.298Z,32.00
2018-08-10T04:02:55.290Z,36.00
2018-08-10T04:04:51.749Z,44.00
2018-08-10T04:05:51.248Z,48.00
2018-08-10T04:07:47.163Z,60.00
2018-08-10T04:08:47.204Z,64.00
2018-08-10T04:10:43.665Z,76.00
2018-08-10T04:11:43.120Z,80.00
2018-08-10T04:13:39.071Z,96.00
2018-08-10T04:14:39.054Z,100.00
2018-08-10T04:16:36.520Z,116.00
2018-08-10T04:17:35.006Z,128.00
2018-08-10T04:19:31.471Z,144.00
2018-08-10T04:20:31.973Z,152.00
2018-08-10T04:22:26.891Z,180.00
2018-08-10T04:23:27.426Z,192.00
2018-08-10T04:25:23.887Z,216.00
2018-08-10T04:26:22.819Z,228.00
2018-08-10T04:28:18.766Z,256.00
2018-08-10T04:29:18.754Z,272.00
2018-08-10T04:31:14.760Z,304.00
2018-08-10T04:32:14.689Z,324.00
2018-08-10T04:34:10.732Z,348.00
2018-08-10T04:35:11.144Z,364.00
2018-08-10T04:37:06.557Z,408.00
2018-08-10T04:38:06.578Z,428.00
2018-08-10T04:40:03.520Z,460.00
2018-08-10T04:41:02.518Z,476.00
2018-08-10T04:42:56.951Z,508.00
2018-08-10T04:43:57.471Z,528.00
2018-08-10T04:45:52.939Z,568.00
2018-08-10T04:46:52.895Z,592.00
2018-08-10T04:48:49.351Z,636.00
2018-08-10T04:49:48.838Z,656.00
2018-08-10T04:51:44.770Z,688.00
2018-08-10T04:52:44.765Z,708.00
2018-08-10T04:54:41.232Z,744.00
2018-08-10T04:55:40.724Z,756.00
2018-08-10T04:57:36.652Z,784.00
2018-08-10T04:58:37.173Z,800.00
2018-08-10T05:00:32.611Z,828.00
2018-08-10T05:01:32.609Z,840.00
2018-08-10T05:03:28.528Z,824.00
2018-08-10T05:04:28.555Z,780.00
2018-08-10T05:06:24.515Z,812.00
2018-08-10T05:07:24.479Z,828.00
2018-08-10T05:09:21.945Z,856.00
2018-08-10T05:10:21.942Z,868.00
2018-08-10T05:12:17.878Z,924.00
2018-08-10T05:13:16.360Z,932.00
2018-08-10T05:15:10.785Z,988.00
2018-08-10T05:16:11.324Z,1092.00
2018-08-10T05:18:06.752Z,1088.00
2018-08-10T05:19:06.727Z,1432.00
2018-08-10T05:21:02.702Z,1520.00
2018-08-10T05:22:02.681Z,1580.00
2018-08-10T05:23:58.603Z,1592.00
2018-08-10T05:24:59.145Z,1572.00
2018-08-10T05:26:55.586Z,1632.00
2018-08-10T05:27:54.574Z,1660.00
2018-08-10T05:29:50.560Z,1736.00
2018-08-10T05:30:50.521Z,1788.00
2018-08-10T05:32:46.465Z,1812.00
2018-08-10T05:33:46.488Z,1832.00
2018-08-10T05:35:43.430Z,1844.00
2018-08-10T05:36:42.403Z,1828.00
2018-08-10T05:38:39.293Z,1844.00
2018-08-10T05:39:38.331Z,1884.00
2018-08-10T05:41:34.313Z,1908.00
2018-08-10T05:42:34.306Z,1900.00
2018-08-10T05:44:30.216Z,1912.00
2018-08-10T05:45:30.225Z,1932.00
2018-08-10T05:47:26.705Z,1956.00
2018-08-10T05:48:26.206Z,1960.00
2018-08-10T05:50:22.124Z,1944.00
2018-08-10T05:51:22.124Z,1932.00
2018-08-10T05:53:18.095Z,1936.00
2018-08-10T05:54:18.067Z,1972.00
2018-08-10T05:56:14.026Z,1992.00
2018-08-10T05:57:14.029Z,1988.00
2018-08-10T05:59:10.489Z,1964.00
2018-08-10T06:00:10.476Z,1940.00
2018-08-10T06:02:06.859Z,1944.00
2018-08-10T06:03:05.916Z,1940.00
2018-08-10T06:05:01.815Z,1932.00
2018-08-10T06:06:01.871Z,1952.00
2018-08-10T06:08:00.820Z,1960.00
2018-08-10T06:08:59.945Z,1976.00
2018-08-10T06:10:58.921Z,1976.00
2018-08-10T06:11:58.894Z,1964.00
2018-08-10T06:14:00.092Z,1964.00
2018-08-10T06:16:18.024Z,1912.00
2018-08-10T06:17:16.015Z,1904.00
2018-08-10T06:19:12.488Z,1872.00
2018-08-10T06:20:12.477Z,1868.00
2018-08-10T06:22:09.990Z,1888.00
2018-08-10T06:23:09.435Z,1872.00
2018-08-10T06:25:08.329Z,1864.00
2018-08-10T06:26:07.057Z,1856.00
2018-08-10T06:28:03.006Z,1852.00
2018-08-10T06:29:03.023Z,1840.00
2018-08-10T06:30:59.002Z,1820.00
2018-08-10T06:31:58.963Z,1820.00
2018-08-10T06:33:57.251Z,1800.00
2018-08-10T06:34:57.927Z,1800.00
2018-08-10T06:38:32.464Z,1796.00
2018-08-10T06:41:03.282Z,1804.00
